ENAL Airport Information

Runway Information
Runway 07 Length 7592 ft width 148 ft Elevation 34 ft Threshold 490 ft Heading 65
Runway 25 Length 7592 ft Width 148 ft Elevation 48 ft Threshold 755 ft Heading 245
Airport Frequencies
Type ATIS Name ATIS Frequency 128.65 MHZ
Type TWR Name TWR Frequency 119.85 MHZ
Airport Navaids
Type NDB Name Vigra Frequency 355 KHZ
Type TACAN Name Vigra Frequency 112400 KHZ
Type VOR-DME Name Vigra Frequency 115800 KHZ
Airport Weather Information & NOTAM
ADDS - METARS form results

(1225 UTC 30 January 2023)
Data provider http://aviationweather.gov/metar/data/
 
METAR text: ENAL 301220Z 33014G26KT 290V010 9999 VCSH BKN017CB 03/M01 Q0998
Conditions at: ENAL (ALESUND/VIGRA , NO) observed 1220 UTC 30 January 2023
Temperature: 3.0°C (37°F)
Dewpoint: -1.0°C (30°F) [RH = 75%]
Pressure (altimeter): 29.47 inches Hg (998.0 mb)
Winds: from the NNW (330 degrees) at 16 MPH (14 knots; 7.2 m/s)
gusting to 30 MPH (26 knots; 13.4 m/s)
Visibility: 6 or more miles (10+ km)
Ceiling: 1700 feet AGL
Clouds: broken clouds at 1700 feet AGL
Weather: VCSH  (showers in vicinity)

METAR text: ENAL 301150Z 33020G33KT 9999 -SHRASN SCT039CB 02/M01 Q0997
Conditions at: ENAL (ALESUND/VIGRA , NO) observed 1150 UTC 30 January 2023
Temperature: 2.0°C (36°F)
Dewpoint: -1.0°C (30°F) [RH = 80%]
Pressure (altimeter): 29.44 inches Hg (997.0 mb)
Winds: from the NNW (330 degrees) at 23 MPH (20 knots; 10.3 m/s)
gusting to 38 MPH (33 knots; 17.0 m/s)
Visibility: 6 or more miles (10+ km)
Ceiling: at least 12,000 feet AGL
Clouds: scattered clouds at 3900 feet AGL
Weather: -SHRA -SHSN  (light rain showers, light snow showers)

Forecast for: ENAL (ALESUND/VIGRA , NO)
Text: TAF ENAL 301100Z 3012/3021 32020KT 9999 -SHRASN FEW015TCU BKN030
Forecast period: 1200 to 2100 UTC 30 January 2023
Forecast type: FROM: standard forecast or significant change
Winds: from the NW (320 degrees) at 23 MPH (20 knots; 10.3 m/s)
Visibility: 6 or more miles (10+ km)
Ceiling: 3000 feet AGL
Clouds: few clouds at 1500 feet AGL
broken clouds at 3000 feet AGL
Weather: -SHRA -SHSN  (light rain showers, light snow showers)
Text: TEMPO 3012/3021 31025G35KT 3000 SHRASNGS BKN012CB
Forecast period: 1200 to 2100 UTC 30 January 2023
Forecast type: TEMPORARY: The following changes expected for less than half the time period
Winds: from the NW (310 degrees) at 29 MPH (25 knots; 12.9 m/s)
gusting to 40 MPH (35 knots; 18.0 m/s)
Visibility: 1.86 miles (2.99 km)
Ceiling: 1200 feet AGL
Clouds: broken clouds at 1200 feet AGL
Weather: SHRA SHSN SHGS  (rain showers, snow showers, small hail or graupel showers)